createdAt,value
2022-09-28T00:01:09.250Z,99458.81
2022-09-28T00:03:38.395Z,99459.38
2022-09-28T00:06:07.191Z,99464.78
2022-09-28T00:08:35.135Z,99456.56
2022-09-28T00:11:03.028Z,99461.97
2022-09-28T00:13:31.603Z,99469.97
2022-09-28T00:16:02.918Z,99456.78
2022-09-28T00:18:30.605Z,99462.75
2022-09-28T00:21:03.404Z,99464.97
2022-09-28T00:23:30.934Z,99459.13
2022-09-28T00:26:02.715Z,99463.38
2022-09-28T00:28:31.320Z,99458.16
2022-09-28T00:30:58.832Z,99462.13
2022-09-28T00:33:26.552Z,99470.50
2022-09-28T00:35:57.501Z,99460.66
2022-09-28T00:38:29.102Z,99465.66
2022-09-28T00:40:56.772Z,99455.09
2022-09-28T00:43:24.513Z,99456.22
2022-09-28T00:45:56.327Z,99454.78
2022-09-28T00:48:24.158Z,99458.16
2022-09-28T00:50:51.604Z,99458.38
2022-09-28T00:53:21.625Z,99451.81
2022-09-28T00:55:53.036Z,99386.84
2022-09-28T00:58:22.263Z,99446.16
2022-09-28T01:00:50.014Z,99441.78
2022-09-28T01:03:17.794Z,99443.16
2022-09-28T01:05:45.791Z,99435.78
2022-09-28T01:08:14.181Z,99434.38
2022-09-28T01:10:43.756Z,99426.75
2022-09-28T01:13:13.152Z,99427.31
2022-09-28T01:15:44.349Z,99434.09
2022-09-28T01:18:14.187Z,99433.31
2022-09-28T01:20:55.770Z,99431.53
2022-09-28T01:23:38.069Z,99438.94
2022-09-28T01:26:27.164Z,99431.50
2022-09-28T01:29:00.498Z,99431.72
2022-09-28T01:31:30.738Z,99430.78
2022-09-28T01:34:01.256Z,99434.00
2022-09-28T01:36:31.144Z,99434.81
2022-09-28T01:39:00.999Z,99432.41
2022-09-28T01:41:30.429Z,99439.63
2022-09-28T01:44:02.800Z,99430.78
2022-09-28T01:46:33.770Z,99431.59
2022-09-28T01:49:04.558Z,99431.81
2022-09-28T01:51:35.491Z,99435.84
2022-09-28T01:54:08.286Z,99432.44
2022-09-28T01:56:39.059Z,99432.84
2022-09-28T01:59:09.261Z,99424.66
2022-09-28T02:01:39.159Z,99431.47
2022-09-28T02:04:09.740Z,99430.84
2022-09-28T02:06:38.865Z,99428.25
2022-09-28T02:09:10.021Z,99429.66
2022-09-28T02:11:41.438Z,99376.91
2022-09-28T02:14:10.038Z,99429.03
2022-09-28T02:16:40.346Z,99432.41
2022-09-28T02:19:09.133Z,99428.63
2022-09-28T02:21:41.806Z,99425.22
2022-09-28T02:24:13.011Z,99426.03
2022-09-28T02:26:43.587Z,99434.56
2022-09-28T02:29:11.325Z,99441.34
2022-09-28T02:31:38.978Z,99439.91
2022-09-28T02:34:06.567Z,99434.56
2022-09-28T02:36:34.575Z,99447.28
2022-09-28T02:39:02.794Z,99438.84
2022-09-28T02:41:43.644Z,99442.63
2022-09-28T02:44:19.409Z,99438.03
2022-09-28T02:46:50.516Z,99437.97
2022-09-28T02:49:22.392Z,99443.03
2022-09-28T02:51:56.996Z,99443.03
2022-09-28T02:54:48.079Z,99439.84
2022-09-28T02:57:24.902Z,99448.25
2022-09-28T03:00:03.048Z,99449.41
2022-09-28T03:02:33.094Z,99446.41
2022-09-28T03:05:09.783Z,99450.63
2022-09-28T03:07:37.968Z,99448.38
2022-09-28T03:10:09.525Z,99455.78
2022-09-28T03:12:38.366Z,99456.16
2022-09-28T03:15:13.564Z,99462.34
2022-09-28T03:17:41.061Z,99456.16
2022-09-28T03:20:11.023Z,99464.38
2022-09-28T03:22:40.629Z,99459.81
2022-09-28T03:25:10.597Z,99462.59
2022-09-28T03:27:38.075Z,99465.19
2022-09-28T03:30:06.028Z,99459.19
2022-09-28T03:32:34.818Z,99457.16
2022-09-28T03:35:02.299Z,99462.16
2022-09-28T03:37:30.021Z,99463.38
2022-09-28T03:39:57.446Z,99452.19
2022-09-28T03:42:24.931Z,99451.59
2022-09-28T03:44:52.464Z,99448.44
2022-09-28T03:47:20.036Z,99451.22
2022-09-28T03:49:48.947Z,99445.41
2022-09-28T03:52:16.420Z,99447.19
2022-09-28T03:54:48.330Z,99448.63
2022-09-28T03:57:16.580Z,99449.81
2022-09-28T03:59:44.030Z,99452.19
2022-09-28T04:02:11.514Z,99454.38
2022-09-28T04:04:39.105Z,99453.34
2022-09-28T04:07:07.851Z,99461.94
2022-09-28T04:09:35.247Z,99460.53
2022-09-28T04:12:04.485Z,99449.97
2022-09-28T04:14:32.122Z,99457.56
2022-09-28T04:16:59.546Z,99452.13
2022-09-28T04:19:27.431Z,99453.72
2022-09-28T04:21:54.814Z,99462.88
2022-09-28T04:24:23.558Z,99465.09
2022-09-28T04:26:50.947Z,99462.44
2022-09-28T04:29:17.494Z,99461.06
2022-09-28T04:31:47.538Z,99465.09
2022-09-28T04:34:17.239Z,99462.94
2022-09-28T04:36:44.872Z,99472.69
2022-09-28T04:39:12.434Z,99464.91
2022-09-28T04:41:41.223Z,99458.53
2022-09-28T04:44:09.126Z,99458.72
2022-09-28T04:46:36.792Z,99463.13
2022-09-28T04:49:04.312Z,99461.69
2022-09-28T04:51:31.791Z,99460.13
2022-09-28T04:53:59.223Z,99462.03
2022-09-28T04:56:26.616Z,99457.81
2022-09-28T04:58:55.371Z,99465.00
2022-09-28T05:01:24.169Z,99466.44
2022-09-28T05:03:51.824Z,99467.69
2022-09-28T05:06:19.273Z,99466.31
2022-09-28T05:08:47.195Z,99474.47
2022-09-28T05:11:15.247Z,99465.72
2022-09-28T05:13:43.706Z,99473.31
2022-09-28T05:16:13.243Z,99470.66
2022-09-28T05:18:40.698Z,99397.03
2022-09-28T05:21:10.600Z,99470.28
2022-09-28T05:23:37.980Z,99475.66
2022-09-28T05:26:05.756Z,99476.63
2022-09-28T05:28:33.995Z,99476.22
2022-09-28T05:31:01.854Z,99479.56
2022-09-28T05:33:30.944Z,99480.41
2022-09-28T05:36:01.368Z,99477.91
2022-09-28T05:38:29.192Z,99483.72
2022-09-28T05:40:56.718Z,99489.78
2022-09-28T05:43:24.308Z,99489.59
2022-09-28T05:45:55.608Z,99490.88
2022-09-28T05:48:23.345Z,99483.66
2022-09-28T05:50:52.864Z,99480.56
2022-09-28T05:53:20.584Z,99487.72
2022-09-28T05:55:48.215Z,99487.00
2022-09-28T05:58:15.645Z,99478.94
2022-09-28T06:00:43.127Z,99482.63
2022-09-28T06:03:12.112Z,99487.91
2022-09-28T06:05:39.891Z,99487.03
2022-09-28T06:08:10.279Z,99481.28
2022-09-28T06:10:37.719Z,99476.19
2022-09-28T06:13:05.265Z,99476.00
2022-09-28T06:15:33.582Z,99475.19
2022-09-28T06:18:01.778Z,99481.66
2022-09-28T06:20:31.095Z,99484.59
2022-09-28T06:22:58.514Z,99484.63
2022-09-28T06:25:28.382Z,99487.25
2022-09-28T06:27:56.491Z,99487.91
2022-09-28T06:30:27.181Z,99487.91
2022-09-28T06:32:56.174Z,99489.53
2022-09-28T06:35:24.456Z,99494.72
2022-09-28T06:37:52.232Z,99491.19
2022-09-28T06:40:20.312Z,99496.59
2022-09-28T06:42:57.136Z,99491.28
2022-09-28T06:45:25.513Z,99489.50
2022-09-28T06:47:57.503Z,99493.50
2022-09-28T06:50:25.169Z,99493.56
2022-09-28T06:52:53.622Z,99498.63
2022-09-28T06:55:21.063Z,99494.03
2022-09-28T06:57:49.159Z,99499.69
2022-09-28T07:00:18.160Z,99508.91
2022-09-28T07:02:45.843Z,99518.88
2022-09-28T07:05:13.742Z,99512.50
2022-09-28T07:07:42.839Z,99513.34
2022-09-28T07:10:10.828Z,99518.34
2022-09-28T07:12:38.343Z,99519.34
2022-09-28T07:15:07.214Z,99522.56
2022-09-28T07:17:50.186Z,99530.38
2022-09-28T07:20:22.164Z,99526.00
2022-09-28T07:22:53.643Z,99526.81
2022-09-28T07:25:21.059Z,99498.34
2022-09-28T07:27:48.828Z,99541.84
2022-09-28T07:30:16.929Z,99533.03
2022-09-28T07:32:48.358Z,99542.44
2022-09-28T07:35:16.071Z,99537.03
2022-09-28T07:37:43.432Z,99543.63
2022-09-28T07:40:29.070Z,99551.44
2022-09-28T07:42:56.540Z,99541.44
2022-09-28T07:45:24.734Z,99551.66
2022-09-28T07:47:55.489Z,99554.47
2022-09-28T07:50:23.255Z,99553.66
2022-09-28T07:52:50.684Z,99555.03
2022-09-28T07:55:18.171Z,99549.41
2022-09-28T07:57:46.952Z,99558.63
2022-09-28T08:00:15.608Z,99552.19
2022-09-28T08:02:43.035Z,99564.44
2022-09-28T08:05:12.367Z,99565.19
2022-09-28T08:07:39.864Z,99555.59
2022-09-28T08:10:07.575Z,99565.59
2022-09-28T08:12:35.837Z,99561.75
2022-09-28T08:15:04.318Z,99566.16
2022-09-28T08:17:31.726Z,99564.34
2022-09-28T08:20:22.263Z,99566.38
2022-09-28T08:22:51.028Z,99572.97
2022-09-28T08:25:18.608Z,99571.72
2022-09-28T08:27:46.167Z,99571.69
2022-09-28T08:30:13.704Z,99581.31
2022-09-28T08:32:46.738Z,99579.69
2022-09-28T08:35:14.585Z,99579.44
2022-09-28T08:37:44.923Z,99588.47
2022-09-28T08:40:19.472Z,99592.03
2022-09-28T08:42:47.446Z,99584.19
2022-09-28T08:45:15.843Z,99593.03
2022-09-28T08:48:21.661Z,99596.16
2022-09-28T08:50:52.154Z,99594.59
2022-09-28T08:53:28.781Z,99603.28
2022-09-28T08:55:58.890Z,99602.25
2022-09-28T08:58:30.312Z,99604.00
2022-09-28T09:00:59.082Z,99616.63
2022-09-28T09:03:30.530Z,99614.56
2022-09-28T09:06:06.754Z,99621.31
2022-09-28T09:08:41.221Z,99617.81
2022-09-28T09:11:16.403Z,99618.84
2022-09-28T09:14:02.414Z,99622.59
2022-09-28T09:16:34.035Z,99620.16
2022-09-28T09:19:07.165Z,99628.22
2022-09-28T09:21:40.525Z,99623.25
2022-09-28T09:24:16.065Z,99627.84
2022-09-28T09:26:44.966Z,99627.09
2022-09-28T09:29:27.290Z,99625.88
2022-09-28T09:32:04.333Z,99627.16
2022-09-28T09:34:39.353Z,99634.19
2022-09-28T09:37:16.999Z,99632.81
2022-09-28T09:39:50.614Z,99628.91
2022-09-28T09:42:26.924Z,99632.94
2022-09-28T09:45:00.642Z,99638.16
2022-09-28T09:47:32.184Z,99635.25
2022-09-28T09:50:06.792Z,99634.66
2022-09-28T09:52:42.329Z,99636.28
2022-09-28T09:55:15.725Z,99636.72
2022-09-28T09:57:46.658Z,99628.09
2022-09-28T10:00:15.168Z,99638.31
2022-09-28T10:02:44.041Z,99635.47
2022-09-28T10:05:18.813Z,99638.00
2022-09-28T10:07:48.673Z,99633.66
2022-09-28T10:10:19.053Z,99635.03
2022-09-28T10:12:49.716Z,99629.94
2022-09-28T10:15:23.802Z,99638.03
2022-09-28T10:17:51.424Z,99631.97
2022-09-28T10:20:34.005Z,99637.63
2022-09-28T10:23:03.240Z,99631.38
2022-09-28T10:25:33.287Z,99636.59
2022-09-28T10:28:02.535Z,99643.56
2022-09-28T10:30:34.013Z,99643.91
2022-09-28T10:33:28.047Z,99644.81
2022-09-28T10:35:55.939Z,99632.47
2022-09-28T10:38:25.818Z,99647.66
2022-09-28T10:40:56.551Z,99664.59
2022-09-28T10:43:27.209Z,99654.94
2022-09-28T10:46:01.831Z,99659.97
2022-09-28T10:48:30.995Z,99657.47
2022-09-28T10:51:00.095Z,99656.41
2022-09-28T10:53:27.646Z,99651.66
2022-09-28T10:55:59.646Z,99650.44
2022-09-28T10:58:30.086Z,99641.50
2022-09-28T11:01:03.165Z,99645.75
2022-09-28T11:03:31.575Z,99648.13
2022-09-28T11:06:00.637Z,99648.66
2022-09-28T11:08:30.487Z,99645.38
2022-09-28T11:11:09.316Z,99650.72
2022-09-28T11:13:46.258Z,99643.47
2022-09-28T11:16:24.538Z,99644.69
2022-09-28T11:18:52.023Z,99647.06
2022-09-28T11:21:22.504Z,99647.44
2022-09-28T11:23:56.740Z,99647.91
2022-09-28T11:26:24.373Z,99651.88
2022-09-28T11:28:53.589Z,99650.94
2022-09-28T11:31:25.961Z,99644.69
2022-09-28T11:34:02.024Z,99642.72
2022-09-28T11:36:36.107Z,99649.06
2022-09-28T11:39:09.142Z,99657.03
2022-09-28T11:41:43.009Z,99663.78
2022-09-28T11:44:20.380Z,99662.28
2022-09-28T11:46:53.082Z,99663.44
2022-09-28T11:49:28.300Z,99672.22
2022-09-28T11:51:58.241Z,99668.31
2022-09-28T11:54:28.837Z,99671.00
2022-09-28T11:56:59.927Z,99680.44
2022-09-28T11:59:31.669Z,99685.22
2022-09-28T12:02:05.124Z,99684.00
2022-09-28T12:04:34.907Z,99684.22
2022-09-28T12:07:04.997Z,99681.97
2022-09-28T12:09:36.300Z,99678.22
2022-09-28T12:12:05.806Z,99670.59
2022-09-28T12:14:36.837Z,99673.94
2022-09-28T12:17:08.448Z,99670.38
2022-09-28T12:19:40.494Z,99669.00
2022-09-28T12:22:13.461Z,99675.63
2022-09-28T12:24:43.376Z,99672.63
2022-09-28T12:27:13.753Z,99671.97
2022-09-28T12:29:47.334Z,99663.25
2022-09-28T12:32:23.669Z,99666.81
2022-09-28T12:34:53.153Z,99662.72
2022-09-28T12:37:28.724Z,99657.19
2022-09-28T12:40:04.155Z,99654.19
2022-09-28T12:42:46.121Z,99651.38
2022-09-28T12:45:27.663Z,99645.25
2022-09-28T12:48:07.749Z,99645.63
2022-09-28T12:50:42.120Z,99634.69
2022-09-28T12:53:20.850Z,99632.13
2022-09-28T12:55:57.149Z,99632.53
2022-09-28T12:58:31.671Z,99636.47
2022-09-28T13:01:07.681Z,99645.66
2022-09-28T13:03:46.711Z,99649.13
2022-09-28T13:06:21.991Z,99664.16
2022-09-28T13:08:55.257Z,99671.63
2022-09-28T13:11:31.787Z,99676.38
2022-09-28T13:14:07.959Z,99673.44
2022-09-28T13:16:40.259Z,99671.22
2022-09-28T13:19:12.993Z,99672.66
2022-09-28T13:21:44.834Z,99633.81
2022-09-28T13:24:31.580Z,99675.81
2022-09-28T13:27:04.383Z,99669.16
2022-09-28T13:29:32.419Z,99682.53
2022-09-28T13:32:03.205Z,99682.25
2022-09-28T13:34:31.871Z,99676.41
2022-09-28T13:37:10.148Z,99624.97
2022-09-28T13:39:48.700Z,99672.41
2022-09-28T13:42:37.009Z,99675.69
2022-09-28T13:45:37.812Z,99681.81
2022-09-28T13:48:12.634Z,99691.94
2022-09-28T13:50:47.698Z,99684.47
2022-09-28T13:53:22.073Z,99700.19
2022-09-28T13:55:54.690Z,99699.72
2022-09-28T13:58:25.460Z,99702.56
2022-09-28T14:00:55.135Z,99702.00
2022-09-28T14:03:28.305Z,99692.50
2022-09-28T14:06:05.948Z,99701.44
2022-09-28T14:08:35.882Z,99703.41
2022-09-28T14:11:27.777Z,99698.66
2022-09-28T14:14:02.398Z,99695.16
2022-09-28T14:16:32.060Z,99689.06
2022-09-28T14:19:02.702Z,99700.44
2022-09-28T14:21:47.840Z,99705.97
2022-09-28T14:24:31.942Z,99703.94
2022-09-28T14:27:14.953Z,99701.47
2022-09-28T14:29:42.571Z,99708.63
2022-09-28T14:32:23.104Z,99707.03
2022-09-28T14:35:02.226Z,99713.94
2022-09-28T14:37:48.745Z,99710.97
2022-09-28T14:40:37.776Z,99719.56
2022-09-28T14:43:26.959Z,99724.41
2022-09-28T14:46:10.830Z,99722.81
2022-09-28T14:48:44.170Z,99717.69
2022-09-28T14:51:30.638Z,99717.25
2022-09-28T14:54:00.894Z,99716.63
2022-09-28T14:56:32.581Z,99718.25
2022-09-28T14:59:01.156Z,99639.06
2022-09-28T15:01:30.157Z,99722.66
2022-09-28T15:03:59.987Z,99722.75
2022-09-28T15:06:28.919Z,99723.13
2022-09-28T15:08:56.317Z,99717.56
2022-09-28T15:11:26.160Z,99725.41
2022-09-28T15:14:06.019Z,99723.41
2022-09-28T15:16:33.655Z,99726.25
2022-09-28T15:19:10.995Z,99728.28
2022-09-28T15:21:39.355Z,99728.06
2022-09-28T15:24:21.653Z,99726.47
2022-09-28T15:26:51.106Z,99726.06
2022-09-28T15:29:19.316Z,99722.25
2022-09-28T15:31:48.988Z,99725.66
2022-09-28T15:34:50.565Z,99726.03
2022-09-28T15:37:19.990Z,99725.63
2022-09-28T15:39:48.212Z,99721.03
2022-09-28T15:42:18.338Z,99718.22
2022-09-28T15:45:01.189Z,99642.66
2022-09-28T15:47:29.759Z,99729.25
2022-09-28T15:49:58.932Z,99723.06
2022-09-28T15:52:28.785Z,99722.63
2022-09-28T15:54:56.389Z,99724.25
2022-09-28T15:57:36.694Z,99721.25
2022-09-28T16:00:05.868Z,99719.63
2022-09-28T16:02:33.360Z,99720.44
2022-09-28T16:05:01.617Z,99729.78
2022-09-28T16:07:34.942Z,99731.66
2022-09-28T16:10:09.188Z,99725.28
2022-09-28T16:12:48.514Z,99724.34
2022-09-28T16:15:20.357Z,99722.00
2022-09-28T16:17:52.245Z,99727.94
2022-09-28T16:20:23.095Z,99722.50
2022-09-28T16:22:50.728Z,99724.47
2022-09-28T16:25:19.656Z,99723.25
2022-09-28T16:27:48.409Z,99724.06
2022-09-28T16:30:20.101Z,99724.38
2022-09-28T16:32:50.433Z,99723.66
2022-09-28T16:35:19.941Z,99719.13
2022-09-28T16:37:48.649Z,99726.56
2022-09-28T16:40:16.048Z,99724.81
2022-09-28T16:42:49.077Z,99735.88
2022-09-28T16:45:20.300Z,99732.06
2022-09-28T16:47:52.263Z,99737.13
2022-09-28T16:50:20.276Z,99739.16
2022-09-28T16:53:05.214Z,99742.97
2022-09-28T16:55:41.134Z,99747.63
2022-09-28T16:58:09.293Z,99747.81
2022-09-28T17:00:38.117Z,99744.25
2022-09-28T17:03:12.459Z,99749.66
2022-09-28T17:05:40.157Z,99749.28
2022-09-28T17:08:07.669Z,99750.69
2022-09-28T17:10:55.696Z,99753.75
2022-09-28T17:13:31.136Z,99755.16
2022-09-28T17:15:59.964Z,99751.34
2022-09-28T17:18:27.693Z,99756.19
2022-09-28T17:21:04.165Z,99754.19
2022-09-28T17:23:31.702Z,99754.00
2022-09-28T17:25:59.225Z,99761.25
2022-09-28T17:28:28.226Z,99763.47
2022-09-28T17:30:55.829Z,99758.66
2022-09-28T17:33:24.688Z,99753.03
2022-09-28T17:35:53.442Z,99765.94
2022-09-28T17:38:20.883Z,99768.34
2022-09-28T17:40:48.482Z,99763.72
2022-09-28T17:43:15.940Z,99774.34
2022-09-28T17:45:46.324Z,99776.41
2022-09-28T17:48:15.637Z,99774.00
2022-09-28T17:50:46.536Z,99786.03
2022-09-28T17:53:14.693Z,99782.81
2022-09-28T17:55:42.998Z,99784.44
2022-09-28T17:58:15.733Z,99774.41
2022-09-28T18:00:43.694Z,99782.06
2022-09-28T18:03:14.250Z,99772.63
2022-09-28T18:05:42.119Z,99773.59
2022-09-28T18:08:12.045Z,99770.56
2022-09-28T18:10:39.855Z,99769.16
2022-09-28T18:13:07.499Z,99701.38
2022-09-28T18:15:35.251Z,99772.03
2022-09-28T18:18:03.058Z,99766.41
2022-09-28T18:20:30.702Z,99767.00
2022-09-28T18:22:58.616Z,99775.38
2022-09-28T18:25:27.556Z,99769.63
2022-09-28T18:27:57.286Z,99777.03
2022-09-28T18:30:25.067Z,99773.44
2022-09-28T18:32:52.525Z,99776.03
2022-09-28T18:35:22.925Z,99771.81
2022-09-28T18:37:51.250Z,99771.81
2022-09-28T18:40:20.091Z,99771.03
2022-09-28T18:42:50.175Z,99769.22
2022-09-28T18:45:18.617Z,99764.00
2022-09-28T18:47:46.897Z,99773.44
2022-09-28T18:50:15.390Z,99764.19
2022-09-28T18:52:43.811Z,99768.00
2022-09-28T18:55:11.801Z,99762.19
2022-09-28T18:57:41.189Z,99762.78
2022-09-28T19:00:12.087Z,99766.19
2022-09-28T19:02:39.656Z,99762.56
2022-09-28T19:05:07.830Z,99760.16
2022-09-28T19:07:35.787Z,99760.38
2022-09-28T19:10:03.169Z,99753.56
2022-09-28T19:12:30.588Z,99762.38
2022-09-28T19:14:59.520Z,99764.34
2022-09-28T19:17:28.413Z,99764.56
2022-09-28T19:19:55.808Z,99759.34
2022-09-28T19:22:23.208Z,99760.94
2022-09-28T19:24:50.644Z,99767.53
2022-09-28T19:27:18.155Z,99757.09
2022-09-28T19:29:45.512Z,99760.94
2022-09-28T19:32:13.101Z,99762.94
2022-09-28T19:34:41.876Z,99761.97
2022-09-28T19:37:09.367Z,99764.94
2022-09-28T19:39:36.883Z,99772.56
2022-09-28T19:42:04.332Z,99775.19
2022-09-28T19:44:32.328Z,99779.41
2022-09-28T19:47:00.573Z,99774.78
2022-09-28T19:49:33.148Z,99778.59
2022-09-28T19:52:12.688Z,99789.19
2022-09-28T19:54:41.085Z,99788.00
2022-09-28T19:57:09.004Z,99795.22
2022-09-28T19:59:37.083Z,99802.41
2022-09-28T20:02:04.832Z,99798.63
2022-09-28T20:04:32.278Z,99797.59
2022-09-28T20:06:59.695Z,99796.78
2022-09-28T20:09:28.457Z,99797.41
2022-09-28T20:11:55.989Z,99804.41
2022-09-28T20:14:25.835Z,99811.22
2022-09-28T20:16:55.696Z,99812.41
2022-09-28T20:19:23.270Z,99816.63
2022-09-28T20:21:51.097Z,99813.41
2022-09-28T20:24:18.795Z,99818.81
2022-09-28T20:26:49.429Z,99825.22
2022-09-28T20:29:17.393Z,99819.41
2022-09-28T20:31:45.779Z,99816.72
2022-09-28T20:34:13.662Z,99812.47
2022-09-28T20:36:44.581Z,99815.09
2022-09-28T20:39:12.833Z,99827.16
2022-09-28T20:41:40.997Z,99824.09
2022-09-28T20:44:10.179Z,99824.41
2022-09-28T20:46:38.073Z,99827.22
2022-09-28T20:49:07.041Z,99832.03
2022-09-28T20:51:34.406Z,99826.25
2022-09-28T20:54:01.894Z,99822.00
2022-09-28T20:56:30.504Z,99826.56
2022-09-28T20:58:58.328Z,99829.75
2022-09-28T21:01:28.541Z,99827.38
2022-09-28T21:03:56.875Z,99825.53
2022-09-28T21:06:25.146Z,99832.97
2022-09-28T21:08:52.704Z,99829.47
2022-09-28T21:11:20.711Z,99832.06
2022-09-28T21:13:48.578Z,99835.03
2022-09-28T21:16:17.953Z,99840.44
2022-09-28T21:18:47.015Z,99841.31
2022-09-28T21:21:15.010Z,99831.50
2022-09-28T21:23:44.719Z,99842.91
2022-09-28T21:26:13.150Z,99846.88
2022-09-28T21:28:41.019Z,99812.13
2022-09-28T21:31:10.992Z,99838.25
2022-09-28T21:33:38.899Z,99840.44
2022-09-28T21:36:08.531Z,99847.25
2022-09-28T21:38:36.078Z,99848.25
2022-09-28T21:41:03.565Z,99848.47
2022-09-28T21:43:32.162Z,99846.06
2022-09-28T21:45:59.768Z,99843.44
2022-09-28T21:48:27.984Z,99849.25
2022-09-28T21:50:56.721Z,99854.44
2022-09-28T21:53:26.582Z,99849.47
2022-09-28T21:55:54.763Z,99848.66
2022-09-28T21:58:23.084Z,99804.13
2022-09-28T22:00:54.593Z,99854.59
2022-09-28T22:03:24.587Z,99855.97
2022-09-28T22:05:52.608Z,99857.16
2022-09-28T22:08:20.046Z,99855.75
2022-09-28T22:10:58.112Z,99864.91
2022-09-28T22:13:25.491Z,99860.06
2022-09-28T22:15:53.540Z,99861.47
2022-09-28T22:18:20.995Z,99860.03
2022-09-28T22:20:48.448Z,99857.75
2022-09-28T22:23:15.878Z,99856.03
2022-09-28T22:25:43.258Z,99856.22
2022-09-28T22:28:11.966Z,99854.44
2022-09-28T22:30:39.450Z,99853.84
2022-09-28T22:33:06.825Z,99861.00
2022-09-28T22:35:34.236Z,99863.97
2022-09-28T22:38:01.616Z,99860.38
2022-09-28T22:40:29.124Z,99871.16
2022-09-28T22:42:56.597Z,99866.50
2022-09-28T22:45:25.367Z,99873.06
2022-09-28T22:47:52.767Z,99871.66
2022-09-28T22:50:20.177Z,99874.44
2022-09-28T22:52:48.392Z,99871.38
2022-09-28T22:55:15.801Z,99873.56
2022-09-28T22:57:43.288Z,99878.31
2022-09-28T23:00:11.088Z,99874.28
2022-09-28T23:02:39.881Z,99877.72
2022-09-28T23:05:07.902Z,99878.19
2022-09-28T23:07:35.285Z,99871.19
2022-09-28T23:10:02.651Z,99885.78
2022-09-28T23:12:30.436Z,99881.75
2022-09-28T23:14:57.811Z,99881.31
2022-09-28T23:17:25.221Z,99884.28
2022-09-28T23:19:53.959Z,99888.06
2022-09-28T23:22:21.363Z,99886.63
2022-09-28T23:24:48.775Z,99888.78
2022-09-28T23:27:16.181Z,99887.34
2022-09-28T23:29:46.793Z,99886.91
2022-09-28T23:32:14.515Z,99886.28
2022-09-28T23:34:41.943Z,99890.03
2022-09-28T23:37:10.873Z,99890.41
2022-09-28T23:39:38.258Z,99893.38
2022-09-28T23:42:05.667Z,99819.63
2022-09-28T23:44:33.122Z,99898.28
2022-09-28T23:47:00.574Z,99895.88
2022-09-28T23:49:28.530Z,99894.25
2022-09-28T23:51:56.085Z,99890.41
2022-09-28T23:54:24.783Z,99887.91
2022-09-28T23:56:52.239Z,99888.28
2022-09-28T23:59:19.686Z,99878.94
